sensor_id;sensor_type;location;lat;lon;timestamp;P1;durP1;ratioP1;P2;durP2;ratioP2
14698;SDS011;7439;50.804;4.602;2022-07-29T00:01:58;18.43;;;3.10;;
14698;SDS011;7439;50.804;4.602;2022-07-29T00:04:25;4.70;;;2.60;;
14698;SDS011;7439;50.804;4.602;2022-07-29T00:06:53;3.23;;;2.20;;
14698;SDS011;7439;50.804;4.602;2022-07-29T00:09:21;3.33;;;1.97;;
14698;SDS011;7439;50.804;4.602;2022-07-29T00:11:49;4.63;;;2.20;;
14698;SDS011;7439;50.804;4.602;2022-07-29T00:14:16;5.83;;;2.70;;
14698;SDS011;7439;50.804;4.602;2022-07-29T00:16:43;5.17;;;2.77;;
14698;SDS011;7439;50.804;4.602;2022-07-29T00:19:10;5.33;;;2.63;;
14698;SDS011;7439;50.804;4.602;2022-07-29T00:21:38;5.73;;;2.57;;
14698;SDS011;7439;50.804;4.602;2022-07-29T00:24:05;7.73;;;2.50;;
14698;SDS011;7439;50.804;4.602;2022-07-29T00:26:34;3.37;;;2.37;;
14698;SDS011;7439;50.804;4.602;2022-07-29T00:29:02;4.80;;;2.23;;
14698;SDS011;7439;50.804;4.602;2022-07-29T00:31:30;3.63;;;2.37;;
14698;SDS011;7439;50.804;4.602;2022-07-29T00:33:57;7.77;;;2.47;;
14698;SDS011;7439;50.804;4.602;2022-07-29T00:36:25;4.00;;;2.50;;
14698;SDS011;7439;50.804;4.602;2022-07-29T00:38:51;4.77;;;2.80;;
14698;SDS011;7439;50.804;4.602;2022-07-29T00:41:18;4.10;;;2.50;;
14698;SDS011;7439;50.804;4.602;2022-07-29T00:43:47;4.10;;;2.60;;
14698;SDS011;7439;50.804;4.602;2022-07-29T00:46:15;4.63;;;2.40;;
14698;SDS011;7439;50.804;4.602;2022-07-29T00:48:42;3.63;;;2.40;;
14698;SDS011;7439;50.804;4.602;2022-07-29T00:51:09;5.03;;;2.53;;
14698;SDS011;7439;50.804;4.602;2022-07-29T00:53:36;7.10;;;2.47;;
14698;SDS011;7439;50.804;4.602;2022-07-29T00:56:04;3.50;;;2.20;;
14698;SDS011;7439;50.804;4.602;2022-07-29T00:58:32;5.50;;;2.30;;
14698;SDS011;7439;50.804;4.602;2022-07-29T01:01:01;5.83;;;3.00;;
14698;SDS011;7439;50.804;4.602;2022-07-29T01:03:28;3.13;;;2.60;;
14698;SDS011;7439;50.804;4.602;2022-07-29T01:05:55;4.77;;;2.50;;
14698;SDS011;7439;50.804;4.602;2022-07-29T01:08:23;2.53;;;2.30;;
14698;SDS011;7439;50.804;4.602;2022-07-29T01:10:50;4.47;;;2.90;;
14698;SDS011;7439;50.804;4.602;2022-07-29T01:13:18;5.10;;;2.87;;
14698;SDS011;7439;50.804;4.602;2022-07-29T01:15:47;5.10;;;2.20;;
14698;SDS011;7439;50.804;4.602;2022-07-29T01:18:18;3.07;;;2.67;;
14698;SDS011;7439;50.804;4.602;2022-07-29T01:20:55;4.23;;;2.30;;
14698;SDS011;7439;50.804;4.602;2022-07-29T01:26:31;4.83;;;2.60;;
14698;SDS011;7439;50.804;4.602;2022-07-29T01:29:06;3.63;;;2.50;;
14698;SDS011;7439;50.804;4.602;2022-07-29T01:31:36;6.47;;;2.30;;
14698;SDS011;7439;50.804;4.602;2022-07-29T01:34:07;4.70;;;2.70;;
14698;SDS011;7439;50.804;4.602;2022-07-29T01:36:35;4.50;;;2.50;;
14698;SDS011;7439;50.804;4.602;2022-07-29T01:39:06;4.67;;;2.27;;
14698;SDS011;7439;50.804;4.602;2022-07-29T01:41:35;5.20;;;2.27;;
14698;SDS011;7439;50.804;4.602;2022-07-29T01:44:07;2.50;;;2.13;;
14698;SDS011;7439;50.804;4.602;2022-07-29T01:46:38;2.73;;;2.53;;
14698;SDS011;7439;50.804;4.602;2022-07-29T01:49:08;3.10;;;2.80;;
14698;SDS011;7439;50.804;4.602;2022-07-29T01:51:40;8.77;;;3.10;;
14698;SDS011;7439;50.804;4.602;2022-07-29T01:54:10;2.50;;;2.30;;
14698;SDS011;7439;50.804;4.602;2022-07-29T01:56:39;5.93;;;2.80;;
14698;SDS011;7439;50.804;4.602;2022-07-29T01:59:11;11.23;;;3.47;;
14698;SDS011;7439;50.804;4.602;2022-07-29T02:01:39;4.80;;;2.80;;
14698;SDS011;7439;50.804;4.602;2022-07-29T02:04:07;4.03;;;2.10;;
14698;SDS011;7439;50.804;4.602;2022-07-29T02:06:37;2.83;;;2.20;;
14698;SDS011;7439;50.804;4.602;2022-07-29T02:09:05;5.33;;;2.77;;
14698;SDS011;7439;50.804;4.602;2022-07-29T02:11:34;5.00;;;2.87;;
14698;SDS011;7439;50.804;4.602;2022-07-29T02:14:02;7.03;;;3.00;;
14698;SDS011;7439;50.804;4.602;2022-07-29T02:16:32;6.07;;;2.63;;
14698;SDS011;7439;50.804;4.602;2022-07-29T02:19:01;3.27;;;2.43;;
14698;SDS011;7439;50.804;4.602;2022-07-29T02:21:28;3.43;;;2.87;;
14698;SDS011;7439;50.804;4.602;2022-07-29T02:23:57;3.57;;;2.73;;
14698;SDS011;7439;50.804;4.602;2022-07-29T02:26:26;2.93;;;2.50;;
14698;SDS011;7439;50.804;4.602;2022-07-29T02:28:55;6.90;;;2.23;;
14698;SDS011;7439;50.804;4.602;2022-07-29T02:31:24;3.93;;;2.83;;
14698;SDS011;7439;50.804;4.602;2022-07-29T02:33:53;4.90;;;2.80;;
14698;SDS011;7439;50.804;4.602;2022-07-29T02:36:21;3.90;;;2.43;;
14698;SDS011;7439;50.804;4.602;2022-07-29T02:38:49;5.97;;;3.13;;
14698;SDS011;7439;50.804;4.602;2022-07-29T02:41:17;4.80;;;3.27;;
14698;SDS011;7439;50.804;4.602;2022-07-29T02:43:46;3.33;;;2.60;;
14698;SDS011;7439;50.804;4.602;2022-07-29T02:46:16;3.37;;;2.93;;
14698;SDS011;7439;50.804;4.602;2022-07-29T02:48:47;3.37;;;2.57;;
14698;SDS011;7439;50.804;4.602;2022-07-29T02:51:17;3.30;;;2.93;;
14698;SDS011;7439;50.804;4.602;2022-07-29T02:53:46;3.83;;;2.97;;
14698;SDS011;7439;50.804;4.602;2022-07-29T02:56:16;3.90;;;2.80;;
14698;SDS011;7439;50.804;4.602;2022-07-29T02:58:46;3.83;;;2.90;;
14698;SDS011;7439;50.804;4.602;2022-07-29T03:01:17;3.90;;;3.50;;
14698;SDS011;7439;50.804;4.602;2022-07-29T03:03:47;10.33;;;3.50;;
14698;SDS011;7439;50.804;4.602;2022-07-29T03:06:15;3.53;;;2.73;;
14698;SDS011;7439;50.804;4.602;2022-07-29T03:08:45;3.47;;;2.93;;
14698;SDS011;7439;50.804;4.602;2022-07-29T03:11:13;4.53;;;3.07;;
14698;SDS011;7439;50.804;4.602;2022-07-29T03:13:41;3.90;;;2.73;;
14698;SDS011;7439;50.804;4.602;2022-07-29T03:16:09;3.03;;;2.70;;
14698;SDS011;7439;50.804;4.602;2022-07-29T03:18:38;3.73;;;2.90;;
14698;SDS011;7439;50.804;4.602;2022-07-29T03:21:05;6.00;;;3.30;;
14698;SDS011;7439;50.804;4.602;2022-07-29T03:23:33;6.17;;;2.87;;
14698;SDS011;7439;50.804;4.602;2022-07-29T03:26:01;4.70;;;3.20;;
14698;SDS011;7439;50.804;4.602;2022-07-29T03:28:29;4.93;;;3.00;;
14698;SDS011;7439;50.804;4.602;2022-07-29T03:30:56;5.53;;;3.23;;
14698;SDS011;7439;50.804;4.602;2022-07-29T03:33:23;5.23;;;2.77;;
14698;SDS011;7439;50.804;4.602;2022-07-29T03:35:51;3.60;;;3.30;;
14698;SDS011;7439;50.804;4.602;2022-07-29T03:38:18;3.63;;;2.87;;
14698;SDS011;7439;50.804;4.602;2022-07-29T03:40:48;4.47;;;3.00;;
14698;SDS011;7439;50.804;4.602;2022-07-29T03:43:18;5.40;;;3.63;;
14698;SDS011;7439;50.804;4.602;2022-07-29T03:45:47;4.17;;;2.90;;
14698;SDS011;7439;50.804;4.602;2022-07-29T03:48:15;3.50;;;3.13;;
14698;SDS011;7439;50.804;4.602;2022-07-29T03:50:43;6.63;;;3.07;;
14698;SDS011;7439;50.804;4.602;2022-07-29T03:53:11;4.93;;;3.20;;
14698;SDS011;7439;50.804;4.602;2022-07-29T03:55:41;4.87;;;3.00;;
14698;SDS011;7439;50.804;4.602;2022-07-29T03:58:08;3.63;;;3.23;;
14698;SDS011;7439;50.804;4.602;2022-07-29T04:00:38;6.23;;;2.93;;
14698;SDS011;7439;50.804;4.602;2022-07-29T04:03:05;5.47;;;3.50;;
14698;SDS011;7439;50.804;4.602;2022-07-29T04:05:32;5.57;;;3.30;;
14698;SDS011;7439;50.804;4.602;2022-07-29T04:08:00;6.90;;;2.90;;
14698;SDS011;7439;50.804;4.602;2022-07-29T04:10:27;3.80;;;3.00;;
14698;SDS011;7439;50.804;4.602;2022-07-29T04:12:54;3.77;;;3.37;;
14698;SDS011;7439;50.804;4.602;2022-07-29T04:15:21;6.60;;;3.03;;
14698;SDS011;7439;50.804;4.602;2022-07-29T04:17:50;7.23;;;3.33;;
14698;SDS011;7439;50.804;4.602;2022-07-29T04:20:17;5.63;;;3.57;;
14698;SDS011;7439;50.804;4.602;2022-07-29T04:22:44;3.30;;;3.00;;
14698;SDS011;7439;50.804;4.602;2022-07-29T04:25:12;7.77;;;3.60;;
14698;SDS011;7439;50.804;4.602;2022-07-29T04:27:39;4.13;;;3.07;;
14698;SDS011;7439;50.804;4.602;2022-07-29T04:30:25;3.73;;;3.43;;
14698;SDS011;7439;50.804;4.602;2022-07-29T04:32:54;6.37;;;3.07;;
14698;SDS011;7439;50.804;4.602;2022-07-29T04:35:21;3.90;;;3.13;;
14698;SDS011;7439;50.804;4.602;2022-07-29T04:37:48;3.67;;;2.93;;
14698;SDS011;7439;50.804;4.602;2022-07-29T04:40:16;3.00;;;2.80;;
14698;SDS011;7439;50.804;4.602;2022-07-29T04:42:43;10.17;;;3.53;;
14698;SDS011;7439;50.804;4.602;2022-07-29T04:45:10;5.90;;;3.50;;
14698;SDS011;7439;50.804;4.602;2022-07-29T04:47:38;6.33;;;3.33;;
14698;SDS011;7439;50.804;4.602;2022-07-29T04:50:08;7.10;;;3.30;;
14698;SDS011;7439;50.804;4.602;2022-07-29T04:52:35;5.30;;;3.27;;
14698;SDS011;7439;50.804;4.602;2022-07-29T04:55:03;5.83;;;3.13;;
14698;SDS011;7439;50.804;4.602;2022-07-29T04:57:31;3.87;;;3.17;;
14698;SDS011;7439;50.804;4.602;2022-07-29T04:59:58;3.87;;;3.10;;
14698;SDS011;7439;50.804;4.602;2022-07-29T05:02:26;4.07;;;3.67;;
14698;SDS011;7439;50.804;4.602;2022-07-29T05:04:56;4.20;;;3.83;;
14698;SDS011;7439;50.804;4.602;2022-07-29T05:07:25;4.53;;;3.53;;
14698;SDS011;7439;50.804;4.602;2022-07-29T05:09:52;7.73;;;3.03;;
14698;SDS011;7439;50.804;4.602;2022-07-29T05:12:21;5.77;;;3.70;;
14698;SDS011;7439;50.804;4.602;2022-07-29T05:14:49;3.50;;;3.20;;
14698;SDS011;7439;50.804;4.602;2022-07-29T05:17:16;5.40;;;3.57;;
14698;SDS011;7439;50.804;4.602;2022-07-29T05:19:43;3.67;;;3.37;;
14698;SDS011;7439;50.804;4.602;2022-07-29T05:22:11;3.23;;;2.93;;
14698;SDS011;7439;50.804;4.602;2022-07-29T05:24:39;5.87;;;3.80;;
14698;SDS011;7439;50.804;4.602;2022-07-29T05:27:07;3.20;;;2.90;;
14698;SDS011;7439;50.804;4.602;2022-07-29T05:29:34;5.47;;;3.67;;
14698;SDS011;7439;50.804;4.602;2022-07-29T05:32:01;5.10;;;3.30;;
14698;SDS011;7439;50.804;4.602;2022-07-29T05:34:29;5.10;;;3.10;;
14698;SDS011;7439;50.804;4.602;2022-07-29T05:36:57;3.63;;;2.87;;
14698;SDS011;7439;50.804;4.602;2022-07-29T05:39:24;3.67;;;2.97;;
14698;SDS011;7439;50.804;4.602;2022-07-29T05:41:53;4.40;;;3.13;;
14698;SDS011;7439;50.804;4.602;2022-07-29T05:44:20;5.67;;;2.97;;
14698;SDS011;7439;50.804;4.602;2022-07-29T05:46:47;5.90;;;3.27;;
14698;SDS011;7439;50.804;4.602;2022-07-29T05:49:14;4.00;;;3.10;;
14698;SDS011;7439;50.804;4.602;2022-07-29T05:51:42;3.70;;;2.87;;
14698;SDS011;7439;50.804;4.602;2022-07-29T05:54:09;3.90;;;3.00;;
14698;SDS011;7439;50.804;4.602;2022-07-29T05:56:36;4.03;;;2.43;;
14698;SDS011;7439;50.804;4.602;2022-07-29T05:59:05;3.93;;;2.67;;
14698;SDS011;7439;50.804;4.602;2022-07-29T06:01:32;6.07;;;3.20;;
14698;SDS011;7439;50.804;4.602;2022-07-29T06:04:04;5.47;;;3.13;;
14698;SDS011;7439;50.804;4.602;2022-07-29T06:06:31;3.83;;;3.00;;
14698;SDS011;7439;50.804;4.602;2022-07-29T06:08:58;4.97;;;3.17;;
14698;SDS011;7439;50.804;4.602;2022-07-29T06:11:26;2.97;;;2.77;;
14698;SDS011;7439;50.804;4.602;2022-07-29T06:13:53;6.90;;;3.77;;
14698;SDS011;7439;50.804;4.602;2022-07-29T06:16:22;6.40;;;3.90;;
14698;SDS011;7439;50.804;4.602;2022-07-29T06:18:49;5.57;;;3.70;;
14698;SDS011;7439;50.804;4.602;2022-07-29T06:21:17;6.67;;;3.73;;
14698;SDS011;7439;50.804;4.602;2022-07-29T06:23:44;5.80;;;4.03;;
14698;SDS011;7439;50.804;4.602;2022-07-29T06:26:12;3.80;;;3.50;;
14698;SDS011;7439;50.804;4.602;2022-07-29T06:28:39;7.57;;;4.17;;
14698;SDS011;7439;50.804;4.602;2022-07-29T06:31:06;6.23;;;4.27;;
14698;SDS011;7439;50.804;4.602;2022-07-29T06:33:35;7.27;;;3.63;;
14698;SDS011;7439;50.804;4.602;2022-07-29T06:36:03;4.93;;;4.00;;
14698;SDS011;7439;50.804;4.602;2022-07-29T06:38:30;5.13;;;4.33;;
14698;SDS011;7439;50.804;4.602;2022-07-29T06:40:58;3.93;;;3.57;;
14698;SDS011;7439;50.804;4.602;2022-07-29T06:43:31;5.67;;;4.13;;
14698;SDS011;7439;50.804;4.602;2022-07-29T06:46:01;4.73;;;3.47;;
14698;SDS011;7439;50.804;4.602;2022-07-29T06:48:28;4.30;;;3.87;;
14698;SDS011;7439;50.804;4.602;2022-07-29T06:50:57;6.40;;;3.87;;
14698;SDS011;7439;50.804;4.602;2022-07-29T06:53:25;4.43;;;4.03;;
14698;SDS011;7439;50.804;4.602;2022-07-29T06:55:52;5.60;;;3.90;;
14698;SDS011;7439;50.804;4.602;2022-07-29T06:58:20;4.23;;;3.87;;
14698;SDS011;7439;50.804;4.602;2022-07-29T07:00:47;6.20;;;4.00;;
14698;SDS011;7439;50.804;4.602;2022-07-29T07:03:15;5.60;;;3.90;;
14698;SDS011;7439;50.804;4.602;2022-07-29T07:05:43;3.80;;;3.50;;
14698;SDS011;7439;50.804;4.602;2022-07-29T07:08:12;5.33;;;3.77;;
14698;SDS011;7439;50.804;4.602;2022-07-29T07:10:41;4.03;;;3.47;;
14698;SDS011;7439;50.804;4.602;2022-07-29T07:13:09;6.77;;;4.00;;
14698;SDS011;7439;50.804;4.602;2022-07-29T07:15:37;4.47;;;4.00;;
14698;SDS011;7439;50.804;4.602;2022-07-29T07:18:04;5.70;;;3.90;;
14698;SDS011;7439;50.804;4.602;2022-07-29T07:20:32;4.10;;;3.70;;
14698;SDS011;7439;50.804;4.602;2022-07-29T07:22:59;6.87;;;3.60;;
14698;SDS011;7439;50.804;4.602;2022-07-29T07:25:28;5.47;;;3.83;;
14698;SDS011;7439;50.804;4.602;2022-07-29T07:27:55;5.23;;;3.63;;
14698;SDS011;7439;50.804;4.602;2022-07-29T07:30:23;10.20;;;3.60;;
14698;SDS011;7439;50.804;4.602;2022-07-29T07:32:50;4.10;;;3.70;;
14698;SDS011;7439;50.804;4.602;2022-07-29T07:35:17;4.37;;;3.57;;
14698;SDS011;7439;50.804;4.602;2022-07-29T07:37:45;7.20;;;3.93;;
14698;SDS011;7439;50.804;4.602;2022-07-29T07:40:12;3.80;;;3.40;;
14698;SDS011;7439;50.804;4.602;2022-07-29T07:42:42;5.43;;;3.73;;
14698;SDS011;7439;50.804;4.602;2022-07-29T07:45:13;4.47;;;3.23;;
14698;SDS011;7439;50.804;4.602;2022-07-29T07:47:40;6.20;;;3.63;;
14698;SDS011;7439;50.804;4.602;2022-07-29T07:50:08;5.50;;;3.67;;
14698;SDS011;7439;50.804;4.602;2022-07-29T07:52:45;4.83;;;2.93;;
14698;SDS011;7439;50.804;4.602;2022-07-29T07:55:12;3.97;;;3.60;;
14698;SDS011;7439;50.804;4.602;2022-07-29T07:57:40;3.97;;;2.93;;
14698;SDS011;7439;50.804;4.602;2022-07-29T08:00:09;5.23;;;3.10;;
14698;SDS011;7439;50.804;4.602;2022-07-29T08:02:36;4.50;;;3.00;;
14698;SDS011;7439;50.804;4.602;2022-07-29T08:05:04;3.47;;;3.10;;
14698;SDS011;7439;50.804;4.602;2022-07-29T08:07:31;5.67;;;3.43;;
14698;SDS011;7439;50.804;4.602;2022-07-29T08:09:59;4.63;;;2.87;;
14698;SDS011;7439;50.804;4.602;2022-07-29T08:12:26;5.70;;;2.80;;
14698;SDS011;7439;50.804;4.602;2022-07-29T08:14:53;5.10;;;3.27;;
14698;SDS011;7439;50.804;4.602;2022-07-29T08:17:22;3.87;;;3.07;;
14698;SDS011;7439;50.804;4.602;2022-07-29T08:19:49;3.87;;;3.00;;
14698;SDS011;7439;50.804;4.602;2022-07-29T08:22:17;5.90;;;3.70;;
14698;SDS011;7439;50.804;4.602;2022-07-29T08:24:44;3.80;;;2.70;;
14698;SDS011;7439;50.804;4.602;2022-07-29T08:27:17;3.87;;;3.03;;
14698;SDS011;7439;50.804;4.602;2022-07-29T08:29:45;3.60;;;2.83;;
14698;SDS011;7439;50.804;4.602;2022-07-29T08:32:13;3.37;;;2.80;;
14698;SDS011;7439;50.804;4.602;2022-07-29T08:34:41;2.97;;;2.30;;
14698;SDS011;7439;50.804;4.602;2022-07-29T08:37:11;5.13;;;2.80;;
14698;SDS011;7439;50.804;4.602;2022-07-29T08:39:39;3.43;;;2.87;;
14698;SDS011;7439;50.804;4.602;2022-07-29T08:42:06;4.00;;;2.70;;
14698;SDS011;7439;50.804;4.602;2022-07-29T08:44:34;3.77;;;2.93;;
14698;SDS011;7439;50.804;4.602;2022-07-29T08:47:02;3.67;;;2.47;;
14698;SDS011;7439;50.804;4.602;2022-07-29T08:49:30;3.90;;;2.60;;
14698;SDS011;7439;50.804;4.602;2022-07-29T08:51:59;4.43;;;2.77;;
14698;SDS011;7439;50.804;4.602;2022-07-29T08:54:27;4.10;;;2.80;;
14698;SDS011;7439;50.804;4.602;2022-07-29T08:56:55;3.30;;;3.00;;
14698;SDS011;7439;50.804;4.602;2022-07-29T08:59:22;3.23;;;2.43;;
14698;SDS011;7439;50.804;4.602;2022-07-29T09:02:03;3.53;;;2.37;;
14698;SDS011;7439;50.804;4.602;2022-07-29T09:04:45;3.53;;;2.67;;
14698;SDS011;7439;50.804;4.602;2022-07-29T09:07:15;2.87;;;2.10;;
14698;SDS011;7439;50.804;4.602;2022-07-29T09:09:42;2.07;;;1.93;;
14698;SDS011;7439;50.804;4.602;2022-07-29T09:12:10;3.30;;;2.20;;
14698;SDS011;7439;50.804;4.602;2022-07-29T09:14:38;2.70;;;1.77;;
14698;SDS011;7439;50.804;4.602;2022-07-29T09:17:05;2.07;;;1.87;;
14698;SDS011;7439;50.804;4.602;2022-07-29T09:19:33;4.73;;;2.23;;
14698;SDS011;7439;50.804;4.602;2022-07-29T09:22:03;2.23;;;1.80;;
14698;SDS011;7439;50.804;4.602;2022-07-29T09:24:39;3.37;;;1.63;;
14698;SDS011;7439;50.804;4.602;2022-07-29T09:27:17;5.37;;;1.70;;
14698;SDS011;7439;50.804;4.602;2022-07-29T09:29:45;3.17;;;1.90;;
14698;SDS011;7439;50.804;4.602;2022-07-29T09:32:13;2.70;;;1.63;;
14698;SDS011;7439;50.804;4.602;2022-07-29T09:34:41;1.90;;;1.50;;
14698;SDS011;7439;50.804;4.602;2022-07-29T09:37:08;2.57;;;1.50;;
14698;SDS011;7439;50.804;4.602;2022-07-29T09:39:37;1.70;;;1.60;;
14698;SDS011;7439;50.804;4.602;2022-07-29T09:42:12;2.17;;;1.43;;
14698;SDS011;7439;50.804;4.602;2022-07-29T09:44:40;3.53;;;1.63;;
14698;SDS011;7439;50.804;4.602;2022-07-29T09:47:07;3.07;;;1.80;;
14698;SDS011;7439;50.804;4.602;2022-07-29T09:49:35;2.57;;;1.63;;
14698;SDS011;7439;50.804;4.602;2022-07-29T09:52:16;2.07;;;1.60;;
14698;SDS011;7439;50.804;4.602;2022-07-29T09:54:43;2.10;;;1.70;;
14698;SDS011;7439;50.804;4.602;2022-07-29T09:57:23;2.13;;;1.77;;
14698;SDS011;7439;50.804;4.602;2022-07-29T09:59:55;1.53;;;1.43;;
14698;SDS011;7439;50.804;4.602;2022-07-29T10:02:24;3.23;;;1.70;;
14698;SDS011;7439;50.804;4.602;2022-07-29T10:04:54;2.20;;;1.77;;
14698;SDS011;7439;50.804;4.602;2022-07-29T10:07:22;2.27;;;1.50;;
14698;SDS011;7439;50.804;4.602;2022-07-29T10:09:50;2.73;;;1.73;;
14698;SDS011;7439;50.804;4.602;2022-07-29T10:12:19;3.60;;;1.70;;
14698;SDS011;7439;50.804;4.602;2022-07-29T10:14:48;3.50;;;1.80;;
14698;SDS011;7439;50.804;4.602;2022-07-29T10:17:16;5.73;;;2.03;;
14698;SDS011;7439;50.804;4.602;2022-07-29T10:19:44;2.10;;;1.60;;
14698;SDS011;7439;50.804;4.602;2022-07-29T10:22:12;2.07;;;1.70;;
14698;SDS011;7439;50.804;4.602;2022-07-29T10:24:39;2.83;;;1.90;;
14698;SDS011;7439;50.804;4.602;2022-07-29T10:27:07;2.97;;;1.70;;
14698;SDS011;7439;50.804;4.602;2022-07-29T10:29:35;2.27;;;1.40;;
14698;SDS011;7439;50.804;4.602;2022-07-29T10:32:16;1.70;;;1.60;;
14698;SDS011;7439;50.804;4.602;2022-07-29T10:34:57;3.00;;;1.90;;
14698;SDS011;7439;50.804;4.602;2022-07-29T10:37:31;2.22;;;1.45;;
14698;SDS011;7439;50.804;4.602;2022-07-29T10:40:00;1.90;;;1.70;;
14698;SDS011;7439;50.804;4.602;2022-07-29T10:42:51;1.80;;;1.70;;
14698;SDS011;7439;50.804;4.602;2022-07-29T10:45:19;2.23;;;2.03;;
14698;SDS011;7439;50.804;4.602;2022-07-29T10:47:49;1.90;;;1.65;;
14698;SDS011;7439;50.804;4.602;2022-07-29T10:50:34;3.25;;;2.15;;
14698;SDS011;7439;50.804;4.602;2022-07-29T10:53:18;3.28;;;2.00;;
14698;SDS011;7439;50.804;4.602;2022-07-29T10:55:46;3.08;;;1.98;;
14698;SDS011;7439;50.804;4.602;2022-07-29T10:58:15;4.78;;;1.80;;
14698;SDS011;7439;50.804;4.602;2022-07-29T11:00:43;2.67;;;1.92;;
14698;SDS011;7439;50.804;4.602;2022-07-29T11:05:55;2.10;;;1.63;;
14698;SDS011;7439;50.804;4.602;2022-07-29T11:08:23;2.85;;;1.88;;
14698;SDS011;7439;50.804;4.602;2022-07-29T11:13:49;3.45;;;1.40;;
14698;SDS011;7439;50.804;4.602;2022-07-29T11:16:17;7.30;;;2.05;;
14698;SDS011;7439;50.804;4.602;2022-07-29T11:21:36;2.03;;;1.42;;
14698;SDS011;7439;50.804;4.602;2022-07-29T11:24:11;2.22;;;1.73;;
14698;SDS011;7439;50.804;4.602;2022-07-29T11:26:39;3.65;;;1.67;;
14698;SDS011;7439;50.804;4.602;2022-07-29T11:29:16;1.77;;;1.58;;
14698;SDS011;7439;50.804;4.602;2022-07-29T11:31:44;2.40;;;1.65;;
14698;SDS011;7439;50.804;4.602;2022-07-29T11:34:23;2.53;;;1.52;;
14698;SDS011;7439;50.804;4.602;2022-07-29T11:39:40;2.40;;;1.77;;
14698;SDS011;7439;50.804;4.602;2022-07-29T11:44:53;4.00;;;1.83;;
14698;SDS011;7439;50.804;4.602;2022-07-29T11:47:21;2.60;;;1.80;;
14698;SDS011;7439;50.804;4.602;2022-07-29T11:49:49;3.03;;;1.70;;
14698;SDS011;7439;50.804;4.602;2022-07-29T11:52:17;3.17;;;1.80;;
14698;SDS011;7439;50.804;4.602;2022-07-29T11:54:47;2.47;;;1.50;;
14698;SDS011;7439;50.804;4.602;2022-07-29T11:57:15;3.43;;;1.93;;
14698;SDS011;7439;50.804;4.602;2022-07-29T11:59:43;2.93;;;1.70;;
14698;SDS011;7439;50.804;4.602;2022-07-29T12:02:11;2.60;;;2.17;;
14698;SDS011;7439;50.804;4.602;2022-07-29T12:04:47;2.08;;;1.63;;
14698;SDS011;7439;50.804;4.602;2022-07-29T12:07:15;5.43;;;2.30;;
14698;SDS011;7439;50.804;4.602;2022-07-29T12:09:50;3.73;;;2.00;;
14698;SDS011;7439;50.804;4.602;2022-07-29T12:12:18;2.67;;;1.70;;
14698;SDS011;7439;50.804;4.602;2022-07-29T12:14:45;3.70;;;2.00;;
14698;SDS011;7439;50.804;4.602;2022-07-29T12:17:25;2.73;;;1.80;;
14698;SDS011;7439;50.804;4.602;2022-07-29T12:19:52;1.70;;;1.60;;
14698;SDS011;7439;50.804;4.602;2022-07-29T12:22:26;5.93;;;2.00;;
14698;SDS011;7439;50.804;4.602;2022-07-29T12:24:55;3.40;;;1.70;;
14698;SDS011;7439;50.804;4.602;2022-07-29T12:27:22;4.87;;;1.80;;
14698;SDS011;7439;50.804;4.602;2022-07-29T12:29:56;2.90;;;1.60;;
14698;SDS011;7439;50.804;4.602;2022-07-29T12:32:30;2.83;;;1.90;;
14698;SDS011;7439;50.804;4.602;2022-07-29T12:34:58;3.00;;;1.90;;
14698;SDS011;7439;50.804;4.602;2022-07-29T12:37:25;2.15;;;1.70;;
14698;SDS011;7439;50.804;4.602;2022-07-29T12:39:52;4.53;;;1.95;;
14698;SDS011;7439;50.804;4.602;2022-07-29T12:42:21;3.05;;;1.70;;
14698;SDS011;7439;50.804;4.602;2022-07-29T12:44:49;3.10;;;1.73;;
14698;SDS011;7439;50.804;4.602;2022-07-29T12:47:17;4.13;;;2.10;;
14698;SDS011;7439;50.804;4.602;2022-07-29T12:49:45;3.10;;;1.80;;
14698;SDS011;7439;50.804;4.602;2022-07-29T12:52:25;4.27;;;1.73;;
14698;SDS011;7439;50.804;4.602;2022-07-29T12:54:53;3.17;;;1.97;;
14698;SDS011;7439;50.804;4.602;2022-07-29T12:57:21;2.13;;;1.90;;
14698;SDS011;7439;50.804;4.602;2022-07-29T13:00:02;2.13;;;1.60;;
14698;SDS011;7439;50.804;4.602;2022-07-29T13:02:32;5.63;;;2.00;;
14698;SDS011;7439;50.804;4.602;2022-07-29T13:05:00;3.88;;;2.00;;
14698;SDS011;7439;50.804;4.602;2022-07-29T13:07:30;2.60;;;1.73;;
14698;SDS011;7439;50.804;4.602;2022-07-29T13:10:09;4.60;;;1.70;;
14698;SDS011;7439;50.804;4.602;2022-07-29T13:12:38;4.80;;;1.88;;
14698;SDS011;7439;50.804;4.602;2022-07-29T13:15:13;2.85;;;1.85;;
14698;SDS011;7439;50.804;4.602;2022-07-29T13:17:41;2.22;;;1.63;;
14698;SDS011;7439;50.804;4.602;2022-07-29T13:20:09;3.85;;;1.88;;
14698;SDS011;7439;50.804;4.602;2022-07-29T13:22:39;3.97;;;2.03;;
14698;SDS011;7439;50.804;4.602;2022-07-29T13:25:07;1.90;;;1.42;;
14698;SDS011;7439;50.804;4.602;2022-07-29T13:27:36;3.03;;;2.00;;
14698;SDS011;7439;50.804;4.602;2022-07-29T13:30:06;3.45;;;2.05;;
14698;SDS011;7439;50.804;4.602;2022-07-29T13:32:34;3.53;;;2.23;;
14698;SDS011;7439;50.804;4.602;2022-07-29T13:35:02;4.65;;;2.00;;
14698;SDS011;7439;50.804;4.602;2022-07-29T13:37:35;2.80;;;2.00;;
14698;SDS011;7439;50.804;4.602;2022-07-29T13:40:09;2.77;;;1.73;;
14698;SDS011;7439;50.804;4.602;2022-07-29T13:42:38;5.33;;;1.80;;
14698;SDS011;7439;50.804;4.602;2022-07-29T13:45:08;2.33;;;1.93;;
14698;SDS011;7439;50.804;4.602;2022-07-29T13:47:36;4.87;;;2.00;;
14698;SDS011;7439;50.804;4.602;2022-07-29T13:50:04;5.43;;;2.27;;
14698;SDS011;7439;50.804;4.602;2022-07-29T13:52:32;5.23;;;2.27;;
14698;SDS011;7439;50.804;4.602;2022-07-29T13:54:59;2.37;;;1.80;;
14698;SDS011;7439;50.804;4.602;2022-07-29T13:57:27;3.37;;;2.23;;
14698;SDS011;7439;50.804;4.602;2022-07-29T13:59:54;4.80;;;2.30;;
14698;SDS011;7439;50.804;4.602;2022-07-29T14:02:23;5.40;;;2.23;;
14698;SDS011;7439;50.804;4.602;2022-07-29T14:04:50;2.63;;;2.00;;
14698;SDS011;7439;50.804;4.602;2022-07-29T14:07:17;6.10;;;2.47;;
14698;SDS011;7439;50.804;4.602;2022-07-29T14:09:45;3.23;;;2.40;;
14698;SDS011;7439;50.804;4.602;2022-07-29T14:12:12;2.60;;;2.20;;
14698;SDS011;7439;50.804;4.602;2022-07-29T14:14:39;4.10;;;2.53;;
14698;SDS011;7439;50.804;4.602;2022-07-29T14:17:06;5.30;;;2.77;;
14698;SDS011;7439;50.804;4.602;2022-07-29T14:19:35;8.37;;;3.20;;
14698;SDS011;7439;50.804;4.602;2022-07-29T14:22:04;3.70;;;2.10;;
14698;SDS011;7439;50.804;4.602;2022-07-29T14:24:32;4.13;;;2.53;;
14698;SDS011;7439;50.804;4.602;2022-07-29T14:27:00;5.77;;;2.50;;
14698;SDS011;7439;50.804;4.602;2022-07-29T14:29:27;5.60;;;2.30;;
14698;SDS011;7439;50.804;4.602;2022-07-29T14:31:55;6.87;;;2.17;;
14698;SDS011;7439;50.804;4.602;2022-07-29T14:34:22;3.03;;;2.10;;
14698;SDS011;7439;50.804;4.602;2022-07-29T14:36:51;4.50;;;2.20;;
14698;SDS011;7439;50.804;4.602;2022-07-29T14:39:20;5.13;;;2.30;;
14698;SDS011;7439;50.804;4.602;2022-07-29T14:41:48;5.27;;;2.57;;
14698;SDS011;7439;50.804;4.602;2022-07-29T14:44:16;3.30;;;2.00;;
14698;SDS011;7439;50.804;4.602;2022-07-29T14:46:43;3.50;;;2.10;;
14698;SDS011;7439;50.804;4.602;2022-07-29T14:49:13;3.10;;;1.90;;
14698;SDS011;7439;50.804;4.602;2022-07-29T14:51:40;4.57;;;2.00;;
14698;SDS011;7439;50.804;4.602;2022-07-29T14:54:09;6.97;;;2.17;;
14698;SDS011;7439;50.804;4.602;2022-07-29T14:56:36;6.00;;;2.47;;
14698;SDS011;7439;50.804;4.602;2022-07-29T14:59:03;2.50;;;2.10;;
14698;SDS011;7439;50.804;4.602;2022-07-29T15:01:31;4.90;;;2.43;;
14698;SDS011;7439;50.804;4.602;2022-07-29T15:03:59;5.43;;;2.30;;
14698;SDS011;7439;50.804;4.602;2022-07-29T15:06:26;5.23;;;2.03;;
14698;SDS011;7439;50.804;4.602;2022-07-29T15:08:53;3.23;;;2.27;;
14698;SDS011;7439;50.804;4.602;2022-07-29T15:11:22;3.97;;;2.30;;
14698;SDS011;7439;50.804;4.602;2022-07-29T15:13:50;2.93;;;2.00;;
14698;SDS011;7439;50.804;4.602;2022-07-29T15:16:17;6.03;;;2.60;;
14698;SDS011;7439;50.804;4.602;2022-07-29T15:18:45;5.70;;;2.20;;
14698;SDS011;7439;50.804;4.602;2022-07-29T15:21:12;2.63;;;2.00;;
14698;SDS011;7439;50.804;4.602;2022-07-29T15:23:40;2.57;;;1.87;;
14698;SDS011;7439;50.804;4.602;2022-07-29T15:26:07;4.27;;;2.13;;
14698;SDS011;7439;50.804;4.602;2022-07-29T15:28:36;5.10;;;2.00;;